createdAt,value
2019-05-26T00:02:08.934Z,5.90
2019-05-26T00:04:37.019Z,5.27
2019-05-26T00:07:04.477Z,4.87
2019-05-26T00:09:33.338Z,4.70
2019-05-26T00:12:01.637Z,5.57
2019-05-26T00:14:29.713Z,5.30
2019-05-26T00:16:57.682Z,4.80
2019-05-26T00:19:36.242Z,5.50
2019-05-26T00:22:07.643Z,4.63
2019-05-26T00:24:35.261Z,5.03
2019-05-26T00:27:03.077Z,5.30
2019-05-26T00:29:31.376Z,4.93
2019-05-26T00:31:58.911Z,5.87
2019-05-26T00:34:26.540Z,5.50
2019-05-26T00:36:54.472Z,5.27
2019-05-26T00:39:23.816Z,4.90
2019-05-26T00:41:51.824Z,5.40
2019-05-26T00:44:19.766Z,5.77
2019-05-26T00:46:53.111Z,4.93
2019-05-26T00:49:20.739Z,6.27
2019-05-26T00:51:49.029Z,5.33
2019-05-26T00:54:16.555Z,5.97
2019-05-26T00:56:54.330Z,6.97
2019-05-26T00:59:28.770Z,6.63
2019-05-26T01:01:56.268Z,6.50
2019-05-26T01:04:24.177Z,7.83
2019-05-26T01:06:53.550Z,7.43
2019-05-26T01:09:21.359Z,9.33
2019-05-26T01:11:52.101Z,10.07
2019-05-26T01:14:21.184Z,10.50
2019-05-26T01:16:51.286Z,10.30
2019-05-26T01:19:21.972Z,11.03
2019-05-26T01:21:49.367Z,10.40
2019-05-26T01:24:16.833Z,10.60
2019-05-26T01:26:44.805Z,11.20
2019-05-26T01:29:13.293Z,12.10
2019-05-26T01:31:41.861Z,12.00
2019-05-26T01:34:09.261Z,11.60
2019-05-26T01:36:38.085Z,11.50
2019-05-26T01:39:07.561Z,11.20
2019-05-26T01:41:35.086Z,11.60
2019-05-26T01:44:02.760Z,10.60
2019-05-26T01:46:31.222Z,11.93
2019-05-26T01:48:59.936Z,12.40
2019-05-26T01:51:28.744Z,11.77
2019-05-26T01:53:56.220Z,11.60
2019-05-26T01:56:27.418Z,11.17
2019-05-26T01:58:56.853Z,10.97
2019-05-26T02:01:26.369Z,12.30
2019-05-26T02:03:54.054Z,13.23
2019-05-26T02:06:22.714Z,13.80
2019-05-26T02:08:52.086Z,15.83
2019-05-26T02:11:21.728Z,15.73
2019-05-26T02:13:54.240Z,17.07
2019-05-26T02:16:25.109Z,17.40
2019-05-26T02:18:53.554Z,17.73
2019-05-26T02:21:20.755Z,17.30
2019-05-26T02:23:49.019Z,17.97
2019-05-26T02:26:19.359Z,19.97
2019-05-26T02:28:46.963Z,19.20
2019-05-26T02:31:14.575Z,20.93
2019-05-26T02:33:42.500Z,22.30
2019-05-26T02:36:11.907Z,21.57
2019-05-26T02:39:00.311Z,22.80
2019-05-26T02:41:10.788Z,23.33
2019-05-26T02:43:38.343Z,24.07
2019-05-26T02:46:07.402Z,24.70
2019-05-26T02:48:35.060Z,23.30
2019-05-26T02:51:02.430Z,25.37
2019-05-26T02:53:30.088Z,24.73
2019-05-26T02:55:57.657Z,25.77
2019-05-26T02:58:25.036Z,24.90
2019-05-26T03:00:54.601Z,26.13
2019-05-26T03:03:22.268Z,25.87
2019-05-26T03:05:49.660Z,25.17
2019-05-26T03:08:18.024Z,25.17
2019-05-26T03:10:45.428Z,25.77
2019-05-26T03:13:23.180Z,26.70
2019-05-26T03:15:50.823Z,26.57
2019-05-26T03:18:18.086Z,26.90
2019-05-26T03:20:45.615Z,27.13
2019-05-26T03:23:14.518Z,27.10
2019-05-26T03:25:42.098Z,27.37
2019-05-26T03:28:11.083Z,26.57
2019-05-26T03:30:38.747Z,27.80
2019-05-26T03:33:06.762Z,28.10
2019-05-26T03:35:35.195Z,27.53
2019-05-26T03:38:02.879Z,28.13
2019-05-26T03:40:33.393Z,28.53
2019-05-26T03:43:10.267Z,28.83
2019-05-26T03:46:07.969Z,28.13
2019-05-26T03:48:36.414Z,27.57
2019-05-26T03:51:04.149Z,28.87
2019-05-26T03:53:31.537Z,29.97
2019-05-26T03:55:59.266Z,32.37
2019-05-26T03:58:29.524Z,31.97
2019-05-26T04:00:59.573Z,32.67
2019-05-26T04:03:28.155Z,33.13
2019-05-26T04:05:57.332Z,31.60
2019-05-26T04:08:24.878Z,32.07
2019-05-26T04:10:52.401Z,32.47
2019-05-26T04:13:25.837Z,34.90
2019-05-26T04:15:54.499Z,34.23
2019-05-26T04:18:22.182Z,33.50
2019-05-26T04:20:50.214Z,34.80
2019-05-26T04:23:19.134Z,35.73
2019-05-26T04:25:47.754Z,34.73
2019-05-26T04:28:16.571Z,36.23
2019-05-26T04:30:49.322Z,34.30
2019-05-26T04:33:17.661Z,33.50
2019-05-26T04:35:45.928Z,34.17
2019-05-26T04:38:13.285Z,35.03
2019-05-26T04:40:40.969Z,32.00
2019-05-26T04:43:13.666Z,34.47
2019-05-26T04:45:38.331Z,34.73
2019-05-26T04:48:05.787Z,34.87
2019-05-26T04:50:33.424Z,34.13
2019-05-26T04:53:06.894Z,33.43
2019-05-26T04:55:31.522Z,34.40
2019-05-26T04:57:59.084Z,34.93
2019-05-26T05:00:26.579Z,35.10
2019-05-26T05:02:54.187Z,33.73
2019-05-26T05:05:22.472Z,33.70
2019-05-26T05:07:50.859Z,34.33
2019-05-26T05:10:18.261Z,33.27
2019-05-26T05:12:45.861Z,32.73
2019-05-26T05:15:13.326Z,31.90
2019-05-26T05:17:40.801Z,32.10
2019-05-26T05:20:08.354Z,33.30
2019-05-26T05:22:35.891Z,33.97
2019-05-26T05:25:13.209Z,31.67
2019-05-26T05:27:35.211Z,32.47
2019-05-26T05:30:10.683Z,32.57
2019-05-26T05:32:37.929Z,29.83
2019-05-26T05:35:15.098Z,32.10
2019-05-26T05:37:49.561Z,31.80
2019-05-26T05:40:24.410Z,31.10
2019-05-26T05:42:52.929Z,30.13
2019-05-26T05:45:21.000Z,32.03
2019-05-26T05:47:56.318Z,30.47
2019-05-26T05:50:26.581Z,30.80
2019-05-26T05:52:54.198Z,30.63
2019-05-26T05:55:22.340Z,30.03
2019-05-26T05:57:52.637Z,29.47
2019-05-26T06:00:20.131Z,28.67
2019-05-26T06:02:48.177Z,30.13
2019-05-26T06:05:16.074Z,28.67
2019-05-26T06:07:43.837Z,30.30
2019-05-26T06:10:11.476Z,28.97
2019-05-26T06:12:39.469Z,29.53
2019-05-26T06:15:10.059Z,28.70
2019-05-26T06:17:45.880Z,28.53
2019-05-26T06:20:14.707Z,28.53
2019-05-26T06:22:46.217Z,28.33
2019-05-26T06:25:17.643Z,29.23
2019-05-26T06:27:54.303Z,28.13
2019-05-26T06:30:26.028Z,26.57
2019-05-26T06:33:03.400Z,27.07
2019-05-26T06:38:12.629Z,26.87
2019-05-26T06:40:43.302Z,26.67
2019-05-26T06:43:14.377Z,26.73
2019-05-26T06:45:52.037Z,25.07
2019-05-26T06:48:26.402Z,25.53
2019-05-26T06:50:52.022Z,24.90
2019-05-26T06:53:19.468Z,26.10
2019-05-26T06:55:48.948Z,24.63
2019-05-26T06:58:16.327Z,25.33
2019-05-26T07:00:45.310Z,23.37
2019-05-26T07:03:14.911Z,24.50
2019-05-26T07:05:42.715Z,23.13
2019-05-26T07:08:20.389Z,23.23
2019-05-26T07:10:51.610Z,21.90
2019-05-26T07:13:25.227Z,22.23
2019-05-26T07:15:56.468Z,22.43
2019-05-26T07:18:27.187Z,20.50
2019-05-26T07:20:59.045Z,21.10
2019-05-26T07:23:27.446Z,20.87
2019-05-26T07:25:55.136Z,21.63
2019-05-26T07:28:22.506Z,18.33
2019-05-26T07:30:54.728Z,19.10
2019-05-26T07:33:22.279Z,18.47
2019-05-26T07:35:53.952Z,19.23
2019-05-26T07:38:21.688Z,17.57
2019-05-26T07:40:50.959Z,18.07
2019-05-26T07:43:20.419Z,17.90
2019-05-26T07:45:54.306Z,17.63
2019-05-26T07:48:22.069Z,17.23
2019-05-26T07:50:54.226Z,16.50
2019-05-26T07:53:24.670Z,15.40
2019-05-26T07:55:52.337Z,16.20
2019-05-26T07:58:21.191Z,16.33
2019-05-26T08:00:50.272Z,17.00
2019-05-26T08:03:24.744Z,16.73
2019-05-26T08:05:52.227Z,15.30
2019-05-26T08:08:20.000Z,14.83
2019-05-26T08:11:00.798Z,15.53
2019-05-26T08:13:29.056Z,15.63
2019-05-26T08:15:56.531Z,15.80
2019-05-26T08:18:24.446Z,15.67
2019-05-26T08:20:58.704Z,15.37
2019-05-26T08:23:27.900Z,15.10
2019-05-26T08:25:58.426Z,15.43
2019-05-26T08:28:26.636Z,15.47
2019-05-26T08:30:54.850Z,15.10
2019-05-26T08:33:22.832Z,16.47
2019-05-26T08:35:52.498Z,15.60
2019-05-26T08:38:20.255Z,15.97
2019-05-26T08:40:52.343Z,15.33
2019-05-26T08:43:22.700Z,15.30
2019-05-26T08:45:50.183Z,14.80
2019-05-26T08:48:17.891Z,16.13
2019-05-26T08:50:45.370Z,14.57
2019-05-26T08:53:12.907Z,14.80
2019-05-26T08:55:49.667Z,15.53
2019-05-26T08:58:17.316Z,14.63
2019-05-26T09:00:44.813Z,15.53
2019-05-26T09:03:14.053Z,14.50
2019-05-26T09:05:47.817Z,15.03
2019-05-26T09:08:15.726Z,14.77
2019-05-26T09:10:43.781Z,15.17
2019-05-26T09:13:11.686Z,15.17
2019-05-26T09:15:42.186Z,14.93
2019-05-26T09:18:11.678Z,14.53
2019-05-26T09:20:43.197Z,13.90
2019-05-26T09:23:10.914Z,13.57
2019-05-26T09:25:40.517Z,14.47
2019-05-26T09:28:09.093Z,14.60
2019-05-26T09:30:39.874Z,13.37
2019-05-26T09:33:10.320Z,13.90
2019-05-26T09:35:38.511Z,14.80
2019-05-26T09:38:06.389Z,13.67
2019-05-26T09:40:34.019Z,14.23
2019-05-26T09:43:15.614Z,13.27
2019-05-26T09:45:43.904Z,13.60
2019-05-26T09:48:12.823Z,13.27
2019-05-26T09:50:40.558Z,13.03
2019-05-26T09:53:09.755Z,13.97
2019-05-26T09:55:37.555Z,13.90
2019-05-26T09:58:05.083Z,13.13
2019-05-26T10:00:35.815Z,13.40
2019-05-26T10:03:03.736Z,14.40
2019-05-26T10:05:31.554Z,13.97
2019-05-26T10:08:05.387Z,14.67
2019-05-26T10:10:33.955Z,13.67
2019-05-26T10:13:03.747Z,13.10
2019-05-26T10:15:31.644Z,13.60
2019-05-26T10:17:59.298Z,13.93
2019-05-26T10:20:34.093Z,14.33
2019-05-26T10:23:01.707Z,13.40
2019-05-26T10:25:29.971Z,14.23
2019-05-26T10:28:06.917Z,15.17
2019-05-26T10:30:35.018Z,15.40
2019-05-26T10:33:03.342Z,14.40
2019-05-26T10:35:32.963Z,14.53
2019-05-26T10:38:00.375Z,13.10
2019-05-26T10:40:32.701Z,14.00
2019-05-26T10:43:07.293Z,13.33
2019-05-26T10:45:35.839Z,12.53
2019-05-26T10:48:03.613Z,13.87
2019-05-26T10:50:31.644Z,11.37
2019-05-26T10:52:58.931Z,10.00
2019-05-26T10:55:26.508Z,9.50
2019-05-26T10:57:54.781Z,7.07
2019-05-26T11:00:22.636Z,6.00
2019-05-26T11:02:50.718Z,5.70
2019-05-26T11:05:21.623Z,4.30
2019-05-26T11:07:49.280Z,4.10
2019-05-26T11:10:17.157Z,3.80
2019-05-26T11:12:48.007Z,4.03
2019-05-26T11:15:15.552Z,3.70
2019-05-26T11:17:44.346Z,4.13
2019-05-26T11:20:13.710Z,3.43
2019-05-26T11:22:42.601Z,3.80
2019-05-26T11:25:11.310Z,3.93
2019-05-26T11:27:44.005Z,4.30
2019-05-26T11:30:11.853Z,4.47
2019-05-26T11:32:40.674Z,4.27
2019-05-26T11:35:13.957Z,4.30
2019-05-26T11:37:41.536Z,4.20
2019-05-26T11:40:10.184Z,4.87
2019-05-26T11:42:45.280Z,3.90
2019-05-26T11:45:15.439Z,4.93
2019-05-26T11:47:45.065Z,4.77
2019-05-26T11:50:19.481Z,4.70
2019-05-26T11:52:52.780Z,4.43
2019-05-26T11:55:34.250Z,5.77
2019-05-26T11:58:13.987Z,5.83
2019-05-26T12:00:46.189Z,5.57
2019-05-26T12:03:16.466Z,5.73
2019-05-26T12:05:44.851Z,5.77
2019-05-26T12:08:12.850Z,4.70
2019-05-26T12:10:40.392Z,5.40
2019-05-26T12:13:08.675Z,4.77
2019-05-26T12:15:36.188Z,5.10
2019-05-26T12:18:04.740Z,4.87
2019-05-26T12:20:42.631Z,4.30
2019-05-26T12:23:10.361Z,4.50
2019-05-26T12:25:40.929Z,4.80
2019-05-26T12:28:09.621Z,4.63
2019-05-26T12:30:38.246Z,4.17
2019-05-26T12:33:08.907Z,3.60
2019-05-26T12:35:44.766Z,3.50
2019-05-26T12:38:12.447Z,3.23
2019-05-26T12:40:40.128Z,3.03
2019-05-26T12:43:07.804Z,3.60
2019-05-26T13:15:05.610Z,3.57
2019-05-26T13:21:11.563Z,3.23
2019-05-26T13:23:39.504Z,3.60
2019-05-26T13:26:10.620Z,3.60
2019-05-26T13:28:38.644Z,3.47
2019-05-26T13:31:09.136Z,3.57
2019-05-26T13:33:44.184Z,3.70
2019-05-26T13:36:13.702Z,3.23
2019-05-26T13:38:41.493Z,3.10
2019-05-26T13:41:09.560Z,2.87
2019-05-26T13:43:57.995Z,2.90
2019-05-26T13:46:34.185Z,2.60
2019-05-26T13:49:08.536Z,2.80
2019-05-26T13:51:39.897Z,3.27
2019-05-26T13:54:07.899Z,2.90
2019-05-26T13:56:36.332Z,2.90
2019-05-26T13:59:05.670Z,2.60
2019-05-26T14:01:34.751Z,2.57
2019-05-26T14:04:05.444Z,2.70
2019-05-26T14:06:40.078Z,2.60
2019-05-26T14:09:11.849Z,2.53
2019-05-26T14:11:42.141Z,2.13
2019-05-26T14:14:10.261Z,2.13
2019-05-26T14:16:38.588Z,2.47
2019-05-26T14:19:08.247Z,2.20
2019-05-26T14:21:37.430Z,2.17
2019-05-26T14:24:11.048Z,2.40
2019-05-26T14:26:39.990Z,2.60
2019-05-26T14:29:14.515Z,2.10
2019-05-26T14:31:45.091Z,1.80
2019-05-26T14:34:14.857Z,1.60
2019-05-26T14:36:42.770Z,1.77
2019-05-26T14:39:10.451Z,1.53
2019-05-26T14:41:38.458Z,1.60
2019-05-26T14:44:09.326Z,1.40
2019-05-26T14:46:36.840Z,1.60
2019-05-26T14:49:10.330Z,1.50
2019-05-26T14:51:38.538Z,1.10
2019-05-26T14:54:06.859Z,1.10
2019-05-26T14:56:38.747Z,1.00
2019-05-26T14:59:06.530Z,1.23
2019-05-26T15:01:37.620Z,1.53
2019-05-26T15:04:05.800Z,1.10
2019-05-26T15:06:37.653Z,1.00
2019-05-26T15:09:07.026Z,1.10
2019-05-26T15:11:35.967Z,1.30
2019-05-26T15:14:08.490Z,1.00
2019-05-26T15:16:36.121Z,0.87
2019-05-26T15:19:09.785Z,1.50
2019-05-26T15:21:38.799Z,1.43
2019-05-26T15:24:07.088Z,1.10
2019-05-26T15:26:45.054Z,1.20
2019-05-26T15:29:13.884Z,1.40
2019-05-26T15:31:44.606Z,1.33
2019-05-26T15:34:12.226Z,1.43
2019-05-26T15:36:42.056Z,1.30
2019-05-26T15:39:47.486Z,1.43
2019-05-26T15:42:47.810Z,1.43
2019-05-26T15:45:17.699Z,1.60
2019-05-26T15:47:45.201Z,1.80
2019-05-26T15:50:14.899Z,1.80
2019-05-26T15:52:42.685Z,1.90
2019-05-26T15:55:18.773Z,1.60
2019-05-26T15:57:52.459Z,1.80
2019-05-26T16:00:23.870Z,2.17
2019-05-26T16:02:56.639Z,2.10
2019-05-26T16:05:26.565Z,2.33
2019-05-26T16:07:56.618Z,2.70
2019-05-26T16:10:26.253Z,2.70
2019-05-26T16:12:56.664Z,2.30
2019-05-26T16:15:24.325Z,2.47
2019-05-26T16:17:52.488Z,2.50
2019-05-26T16:20:20.098Z,2.90
2019-05-26T16:22:51.151Z,2.57
2019-05-26T16:25:19.015Z,2.70
2019-05-26T16:27:52.810Z,2.60
2019-05-26T16:30:20.577Z,2.70
2019-05-26T16:32:48.030Z,2.83
2019-05-26T16:35:16.045Z,2.83
2019-05-26T16:37:46.007Z,2.57
2019-05-26T16:40:14.714Z,2.73
2019-05-26T16:42:42.427Z,2.80
2019-05-26T16:45:11.298Z,3.17
2019-05-26T16:47:38.830Z,2.80
2019-05-26T16:50:07.584Z,2.77
2019-05-26T16:52:35.719Z,2.70
2019-05-26T16:55:11.255Z,3.00
2019-05-26T16:57:39.952Z,3.30
2019-05-26T17:00:15.732Z,3.40
2019-05-26T17:02:43.755Z,2.90
2019-05-26T17:05:12.212Z,3.00
2019-05-26T17:07:49.612Z,3.13
2019-05-26T17:10:17.077Z,3.17
2019-05-26T17:12:45.511Z,2.80
2019-05-26T17:15:17.104Z,2.93
2019-05-26T17:17:49.917Z,3.33
2019-05-26T17:20:17.487Z,2.87
2019-05-26T17:23:04.232Z,2.97
2019-05-26T17:25:39.677Z,3.20
2019-05-26T17:28:11.620Z,3.47
2019-05-26T17:30:40.104Z,3.00
2019-05-26T17:33:08.647Z,3.00
2019-05-26T17:35:36.299Z,2.87
2019-05-26T17:38:04.927Z,2.87
2019-05-26T17:40:32.835Z,3.40
2019-05-26T17:43:02.452Z,2.80
2019-05-26T17:45:32.372Z,2.70
2019-05-26T17:48:00.162Z,3.10
2019-05-26T17:50:27.887Z,2.90
2019-05-26T17:52:55.660Z,3.10
2019-05-26T17:55:23.311Z,3.03
2019-05-26T17:57:57.049Z,2.70
2019-05-26T18:00:27.904Z,2.80
2019-05-26T18:03:02.192Z,2.57
2019-05-26T18:05:31.940Z,2.63
2019-05-26T18:08:08.174Z,2.70
2019-05-26T18:10:40.490Z,2.50
2019-05-26T18:13:08.270Z,2.80
2019-05-26T18:15:41.026Z,2.97
2019-05-26T18:18:11.143Z,2.50
2019-05-26T18:20:39.057Z,3.00
2019-05-26T18:23:06.659Z,2.47
2019-05-26T18:25:38.443Z,2.43
2019-05-26T18:28:06.831Z,2.50
2019-05-26T18:30:34.710Z,2.30
2019-05-26T18:33:02.184Z,2.47
2019-05-26T18:35:29.757Z,2.30
2019-05-26T18:37:57.809Z,2.47
2019-05-26T18:40:32.834Z,2.27
2019-05-26T18:43:00.211Z,2.20
2019-05-26T18:45:28.303Z,2.40
2019-05-26T18:48:03.677Z,2.40
2019-05-26T18:50:31.480Z,2.53
2019-05-26T18:53:00.400Z,2.23
2019-05-26T18:55:28.766Z,2.00
2019-05-26T18:57:56.310Z,2.30
2019-05-26T19:00:31.037Z,2.03
2019-05-26T19:02:58.850Z,2.30
2019-05-26T19:05:38.049Z,2.40
2019-05-26T19:08:02.858Z,2.33
2019-05-26T19:10:30.477Z,2.30
2019-05-26T19:12:58.266Z,2.57
2019-05-26T19:15:27.890Z,2.67
2019-05-26T19:17:55.782Z,2.40
2019-05-26T19:20:23.494Z,2.90
2019-05-26T19:22:53.417Z,2.33
2019-05-26T19:25:21.360Z,2.67
2019-05-26T19:27:48.950Z,2.00
2019-05-26T19:30:18.554Z,3.07
2019-05-26T19:32:55.233Z,2.20
2019-05-26T19:35:23.685Z,2.30
2019-05-26T19:37:51.895Z,2.80
2019-05-26T19:40:25.670Z,2.80
2019-05-26T19:42:56.910Z,2.80
2019-05-26T19:45:25.167Z,2.77
2019-05-26T19:47:52.658Z,2.90
2019-05-26T19:50:20.191Z,2.53
2019-05-26T19:52:49.865Z,2.70
2019-05-26T19:55:17.815Z,2.93
2019-05-26T19:57:48.087Z,2.60
2019-05-26T20:00:18.892Z,2.83
2019-05-26T20:02:49.492Z,2.70
2019-05-26T20:05:17.415Z,2.93
2019-05-26T20:07:45.701Z,3.17
2019-05-26T20:10:13.327Z,3.30
2019-05-26T20:12:40.935Z,3.53
2019-05-26T20:15:08.460Z,3.00
2019-05-26T20:17:36.197Z,3.20
2019-05-26T20:20:04.224Z,3.40
2019-05-26T20:22:32.706Z,3.60
2019-05-26T20:25:03.717Z,3.47
2019-05-26T20:27:31.107Z,3.90
2019-05-26T20:29:58.464Z,3.83
2019-05-26T20:32:31.939Z,4.40
2019-05-26T20:34:59.735Z,4.70
2019-05-26T20:37:27.258Z,4.70
2019-05-26T20:39:55.986Z,4.83
2019-05-26T20:42:25.907Z,5.00
2019-05-26T20:44:55.549Z,5.03
2019-05-26T20:47:23.235Z,4.77
2019-05-26T20:49:50.972Z,5.90
2019-05-26T20:52:18.381Z,5.30
2019-05-26T20:54:46.889Z,5.40
2019-05-26T20:57:14.727Z,5.23
2019-05-26T20:59:43.687Z,5.40
2019-05-26T21:02:12.404Z,5.37
2019-05-26T21:04:39.835Z,5.17
2019-05-26T21:07:09.756Z,5.60
2019-05-26T21:09:39.672Z,5.43
2019-05-26T21:12:07.211Z,5.27
2019-05-26T21:14:34.824Z,4.87
2019-05-26T21:17:02.053Z,4.70
2019-05-26T21:19:29.754Z,5.20
2019-05-26T21:21:57.122Z,4.90
2019-05-26T21:24:24.503Z,5.17
2019-05-26T21:27:00.340Z,6.17
2019-05-26T21:29:28.617Z,5.27
2019-05-26T21:31:57.207Z,5.37
2019-05-26T21:34:32.367Z,4.87
2019-05-26T21:37:01.066Z,5.40
2019-05-26T21:39:32.155Z,5.10
2019-05-26T21:42:05.864Z,5.33
2019-05-26T21:44:39.422Z,4.80
2019-05-26T21:47:07.045Z,4.70
2019-05-26T21:49:36.660Z,4.40
2019-05-26T21:52:11.373Z,4.30
2019-05-26T21:54:55.568Z,4.70
2019-05-26T21:57:20.116Z,4.87
2019-05-26T21:59:47.653Z,4.37
2019-05-26T22:02:15.804Z,4.33
2019-05-26T22:04:45.276Z,4.27
2019-05-26T22:07:17.933Z,4.37
2019-05-26T22:09:48.484Z,4.40
2019-05-26T22:12:18.640Z,3.70
2019-05-26T22:14:47.379Z,3.73
2019-05-26T22:17:15.108Z,3.90
2019-05-26T22:19:44.505Z,3.67
2019-05-26T22:22:12.034Z,4.17
2019-05-26T22:24:48.863Z,3.40
2019-05-26T22:27:16.156Z,3.13
2019-05-26T22:29:47.902Z,3.13
2019-05-26T22:32:15.458Z,3.07
2019-05-26T22:34:42.972Z,2.97
2019-05-26T22:37:12.641Z,3.27
2019-05-26T22:39:41.357Z,3.47
2019-05-26T22:42:08.760Z,3.00
2019-05-26T22:44:36.470Z,3.50
2019-05-26T22:47:05.290Z,3.23
2019-05-26T22:49:35.732Z,3.43
2019-05-26T22:52:04.133Z,4.00
2019-05-26T22:54:31.634Z,3.90
2019-05-26T22:57:00.044Z,3.33
2019-05-26T22:59:27.753Z,3.43
2019-05-26T23:01:55.558Z,2.83
2019-05-26T23:04:23.468Z,3.23
2019-05-26T23:09:24.867Z,3.17
2019-05-26T23:11:52.206Z,2.90
2019-05-26T23:14:20.231Z,3.00
2019-05-26T23:16:49.554Z,3.30
2019-05-26T23:19:22.960Z,3.23
2019-05-26T23:21:50.490Z,3.13
2019-05-26T23:24:18.170Z,3.40
2019-05-26T23:26:45.594Z,3.80
2019-05-26T23:29:13.502Z,3.47
2019-05-26T23:31:41.221Z,3.40
2019-05-26T23:34:08.766Z,3.53
2019-05-26T23:36:36.155Z,3.47
2019-05-26T23:39:05.150Z,3.73
2019-05-26T23:41:32.422Z,3.63
2019-05-26T23:44:00.089Z,3.93
2019-05-26T23:46:27.758Z,3.50
2019-05-26T23:48:55.239Z,4.00
2019-05-26T23:51:22.767Z,3.80
2019-05-26T23:53:50.853Z,3.77
2019-05-26T23:56:19.261Z,4.00
2019-05-26T23:58:46.512Z,4.20
